默认 日期 大小 文件数 浏览量 最新下载 xml
06.08磁力链接相关资源由用户搜索指令自动获取,结果来源于网络,本站不存储任何资料,亦不承担任何责任,请于24小时内删除,搜索到18450个磁力,显示前4000条数据,用时27ms。
    {"ohrly-nda608mb.nfo": 7157, "ohrly-nda608mb.wmv": 288335243, "Torrent Downloaded From ExtraTorrent.cc.nfo": 338}
创建时间: 2020-07-16 05:52:39 大小:274.99 MB 文件数量:3 热度:13 最近下载:2025-05-17 19:56:01
    ... ": 19728161, "big2048.com@ TeensLoveHugeCocks.20.06.08.Vina.Sky.Anal.In.The ...
创建时间: 2020-07-16 22:38:27 大小:579.3 MB 文件数量:25 热度:18 最近下载:2025-09-17 17:47:06
    {"Torrent Downloaded from PornLeech.com.nfo": 462, "[Met-Art] - 2015-06-08 Kika - Quinte [x119] [4324px].zip": 146312871}
创建时间: 2020-07-17 01:07:09 大小:139.54 MB 文件数量:2 热度:6 最近下载:2025-03-10 06:33:04
    {"wankitnow.18.06.08.charlie.atwell.slutty.neighbour[N1C].mp4": 421876568}
创建时间: 2020-07-17 06:59:11 大小:402.33 MB 文件数量:1 热度:5 最近下载:2025-01-24 12:58:04
    {"[JT-Raws]_Tales_of_the_Abyss_06_(DVD_x264_848x480_24fps_AC3).mkv": 354308440, "[JT-Raws]_Tales_of_the_Abyss_07_(DVD_x264_848x480_24fps_AC3).mkv": 354501830, "[JT-Raws]_Tales_of_the_Abyss_SP3_(DVD_x264_848x480_24fps_AC3).mkv": 24112706, "[JT-Raws] ...
创建时间: 2020-07-17 20:56:07 大小:1.04 GB 文件数量:4 热度:1 最近下载:2021-06-17 16:25:58
    {"cc.13.06.08.daria.7803.mp4": 166156460, "cc.13.06.08.daria.7803.nfo": 6972}
创建时间: 2020-07-18 03:27:52 大小:158.47 MB 文件数量:2 热度:5 最近下载:2025-07-05 12:30:01
    {"SexAsian18.15.06.08.Japanese.Geisha.Performing.Hardcore.XXX.H264-oRo.avi": 1238650047}
创建时间: 2020-07-18 10:36:16 大小:1.15 GB 文件数量:1 热度:7 最近下载:2025-02-12 06:44:01
    {"RARBG.txt": 29, "poster.jpg": 44675, "screens.jpg": 605826, "jlmf.17.06.08.riylee.renee.mp4": 674063241}
创建时间: 2020-07-18 21:31:13 大小:643.46 MB 文件数量:4 热度:12 最近下载:2024-11-12 01:20:02
    {"poster.jpg": 54762, "screens.jpg": 692515, "cs.14.06.08.sandy.and.breanne.benson.secretary.romance.mp4": 1091036910}
创建时间: 2020-07-19 20:23:38 大小:1.02 GB 文件数量:3 热度:27 最近下载:2025-09-01 17:14:02
    {"poster.jpg": 23958, "screens.jpg": 449983, "prettydirty.17.06.08.cadence.lux.almost.caught.with.my.brother.mp4": 1489824216}
创建时间: 2020-07-20 09:42:45 大小:1.39 GB 文件数量:3 热度:10 最近下载:2025-03-27 15:59:04
    {"ang.nfo": 7, "nophoenixjohnnycastle_1080.mp4": 3025466650}
创建时间: 2020-07-21 04:33:54 大小:2.82 GB 文件数量:2 热度:5 最近下载:2025-01-28 12:43:02
    ... Space Opening Fiesta, Ibiza [01.06.08].m3u": 93, "Deep Dish - ... Space Opening Fiesta, Ibiza [01.06.08].mp3": 193527808, "Deep Dish - ... Space Opening Fiesta, Ibiza [01.06.08].nfo": 860, "Deep Dish - ... Space Opening Fiesta, Ibiza [01.06.08].pls": 140, "Deep Dish - ...
创建时间: 2020-07-22 05:28:47 大小:184.56 MB 文件数量:5 热度:3 最近下载:2023-12-24 17:10:01
    ... s�y.mp3": 5454954, "06. �@�ۤG�� ... ӱI��.mp3": 5319287, "08. ����� ...
创建时间: 2020-07-23 19:52:02 大小:173.49 MB 文件数量:57 热度:9 最近下载:2025-08-03 03:42:02
    {"poster.jpg": 53314, "bigasde.mp4": 446410093, "screens.jpg": 145780, "RARBG.com.txt": 33}
创建时间: 2020-07-24 15:30:43 大小:425.92 MB 文件数量:4 热度:17 最近下载:2025-04-16 14:41:03
    {"RARBG.txt": 30, "RARBG_DO_NOT_MIRROR.exe": 99, "i.b200608stbrhppusc.mp4": 278735218, "i.b200608stbrhppusc.nfo": 2735}
创建时间: 2020-07-27 00:35:03 大小:265.83 MB 文件数量:4 热度:59 最近下载:2025-09-18 07:33:01
    {"[TGx]Downloaded from torrentgalaxy.to .txt": 678, "jimmy.fallon.2020.06.08.john.oliver.720p.web.h264-trump.mkv": 665278419, "jimmy.fallon.2020.06.08.john.oliver.720p.web.h264-trump.nfo": 504}
创建时间: 2020-07-27 08:37:17 大小:634.46 MB 文件数量:3 热度:2 最近下载:2023-12-25 04:16:02
    {"i.b200608stbrhppusc.mp4": 100698328}
创建时间: 2020-07-27 09:49:39 大小:96.03 MB 文件数量:1 热度:15 最近下载:2025-04-04 18:02:01
    {"Videos": {"ihwharmony_2k.wmv": 341413303, "ihwnikanoir_2k.wmv": 373854089, "ihwedenadams_2k.wmv": 341301309, "ihwrenaecruz_2k.wmv": 381182227, "ihwsophiedee_2k.wmv": 377974185, "ihwwintersky_2k.wmv": 424935247, "ihwbobbistarr_2k.wmv": 331805099, " ...
创建时间: 2020-07-28 05:35:18 大小:9.39 GB 文件数量:29 热度:14 最近下载:2025-02-28 04:35:03
    {"Provided by torrentgalaxy.to .nfo": 690, "JerkOffWithMe.20.06.08.Alexa.Raye.XXX.720p.WEB.x264-GalaXXXy.mkv": 79017688}
创建时间: 2020-07-28 08:50:57 大小:75.36 MB 文件数量:2 热度:4 最近下载:2023-12-25 05:55:03
    {"RARBG.txt": 30, "RARBG_DO_NOT_MIRROR.exe": 99, "i.b200608stbrhppusc4k.mp4": 1475704221, "i.b200608stbrhppusc4k.nfo": 2735}
创建时间: 2020-07-28 17:34:52 大小:1.37 GB 文件数量:4 热度:122 最近下载:2025-07-12 17:44:02